MEK weather

Bassatine Airport
Meknes, Meknsès Province, Morocco

Public forecast

Using degrees Celsius for public forecast. Weather courtesy of forecast.io.

METAR (pilot weather report)

Retrieved 2019/07/22 19:00 UTC (32 minutes ago):

GMFM 221900Z 31009KT 280V340 8000 FEW023TCU 30/19 Q1016 NOSIG

TAF (pilot weather forecast)

Retrieved 2019/07/22 18:15 UTC (1 hour ago):

TAF GMFM 221700Z 2218/2324 33007KT 9999 SCT020TCU PROB30 TEMPO 2220/2224 8000 -TSRA FEW030CB PROB30 TEMPO 2304/2308 4000 BR SCT010 BECMG 2309/2312 8000 NSC BECMG 2312/2314 32010KT FEW020TCU BECMG 2318/2322 VRB02KR CAVOK